Time;durP1;ratioP1;P1;durP2;ratioP2;P2;SDS_P1;SDS_P2;PMS_P1;PMS_P2;Temp;Humidity;BMP_temperature;BMP_pressure;BME280_temperature;BME280_humidity;BME280_pressure;Samples;Min_cycle;Max_cycle;Signal;HPM_P1;HPM_P2
2021/11/15 00:00:30;;;;;;;;;;;;;;;22.45;51.03;103593.31;2091207;28;830;-55
2021/11/15 00:01:31;;;;;;;;;;;;;;;22.49;52.39;103594.19;2090996;28;1902;-55
2021/11/15 00:02:31;;;;;;;;;;;;;;;22.48;53.68;103590.63;2091315;28;858;-55
2021/11/15 00:03:32;;;;;;;;;;;;;;;22.44;52.46;103593.28;2091421;28;898;-55
2021/11/15 00:04:33;;;;;;;;;;;;;;;22.41;52.93;103588.75;2091031;28;970;-55
2021/11/15 00:05:34;;;;;;;;;;;;;;;22.47;51.08;103587.91;2091290;28;791;-55
2021/11/15 00:06:34;;;;;;;;;;;;;;;22.43;50.76;103586.97;2091040;28;970;-55
2021/11/15 00:07:34;;;;;;;;;;;;;;;22.42;53.32;103592.34;2091335;28;1001;-55
2021/11/15 00:08:34;;;;;;;;;;;;;;;22.44;51.66;103588.81;2091376;28;890;-55
2021/11/15 00:09:35;;;;;;;;;;;;;;;22.38;53.60;103588.75;2090990;28;898;-55
2021/11/15 00:10:35;;;;;;;;;;;;;;;22.38;53.02;103590.53;2091443;28;974;-55
2021/11/15 00:11:36;;;;;;;;;;;;;;;22.36;53.15;103593.25;2090742;28;861;-55
2021/11/15 00:12:36;;;;;;;;;;;;;;;22.38;50.47;103590.53;2090743;28;993;-55
2021/11/15 00:13:36;;;;;;;;;;;;;;;22.39;50.90;103597.75;2091333;28;818;-55
2021/11/15 00:14:36;;;;;;;;;;;;;;;22.38;51.70;103590.53;2091140;28;845;-55
2021/11/15 00:15:36;;;;;;;;;;;;;;;22.36;52.21;103591.47;2091184;28;981;-55
2021/11/15 00:16:37;;;;;;;;;;;;;;;22.32;52.08;103591.44;2091331;28;892;-55
2021/11/15 00:17:37;;;;;;;;;;;;;;;22.35;50.38;103592.38;2091243;28;827;-55
2021/11/15 00:18:39;;;;;;;;;;;;;;;22.33;51.64;103591.47;2091369;28;846;-55
2021/11/15 00:19:39;;;;;;;;;;;;;;;22.32;52.98;103588.75;2093015;28;814;-55
2021/11/15 00:20:39;;;;;;;;;;;;;;;22.28;51.63;103587.84;2092653;28;850;-55
2021/11/15 00:21:39;;;;;;;;;;;;;;;22.28;53.71;103584.22;2092846;28;1889;-55
2021/11/15 00:22:40;;;;;;;;;;;;;;;22.25;53.17;103593.22;2092890;28;783;-55
2021/11/15 00:23:40;;;;;;;;;;;;;;;22.27;50.95;103587.81;2092858;28;819;-56
2021/11/15 00:24:41;;;;;;;;;;;;;;;22.30;53.03;103588.75;2092927;28;973;-55
2021/11/15 00:25:41;;;;;;;;;;;;;;;22.28;51.83;103587.84;2092638;28;832;-55
2021/11/15 00:26:41;;;;;;;;;;;;;;;22.25;51.71;103586.91;2092541;28;935;-55
2021/11/15 00:27:41;;;;;;;;;;;;;;;22.28;52.02;103578.81;2092900;28;833;-56
2021/11/15 00:28:42;;;;;;;;;;;;;;;22.26;52.40;103589.63;2092845;28;970;-55
2021/11/15 00:29:42;;;;;;;;;;;;;;;22.28;51.31;103590.53;2092945;28;843;-54
2021/11/15 00:30:42;;;;;;;;;;;;;;;22.27;52.51;103588.75;2092853;28;978;-55
2021/11/15 00:31:44;;;;;;;;;;;;;;;22.23;50.06;103584.22;2092912;28;787;-55
2021/11/15 00:32:45;;;;;;;;;;;;;;;22.23;50.89;103586.94;2092740;28;795;-55
2021/11/15 00:33:45;;;;;;;;;;;;;;;22.23;51.34;103580.59;2092106;28;807;-55
2021/11/15 00:34:45;;;;;;;;;;;;;;;22.22;54.89;103595.94;2092292;28;930;-55
2021/11/15 00:35:45;;;;;;;;;;;;;;;22.17;51.54;103589.59;2092815;28;973;-55
2021/11/15 00:36:45;;;;;;;;;;;;;;;22.14;51.88;103592.28;2092721;28;777;-55
2021/11/15 00:37:46;;;;;;;;;;;;;;;22.15;51.98;103592.28;2092774;28;1054;-55
2021/11/15 00:38:46;;;;;;;;;;;;;;;22.12;50.97;103591.38;2100908;28;1422;-55
2021/11/15 00:39:46;;;;;;;;;;;;;;;22.10;52.20;103585.09;2100900;28;795;-55
2021/11/15 00:40:47;;;;;;;;;;;;;;;22.12;50.75;103578.78;2100936;28;897;-55
2021/11/15 00:41:47;;;;;;;;;;;;;;;22.17;51.31;103582.41;2100999;28;1890;-55
2021/11/15 00:42:47;;;;;;;;;;;;;;;22.12;51.41;103583.28;2101059;28;931;-55
2021/11/15 00:43:48;;;;;;;;;;;;;;;22.08;53.48;103584.16;2101049;28;879;-55
2021/11/15 00:44:48;;;;;;;;;;;;;;;22.09;52.12;103583.28;2100782;28;1106;-55
2021/11/15 00:45:48;;;;;;;;;;;;;;;22.15;51.48;103583.31;2100883;28;779;-55
2021/11/15 00:46:48;;;;;;;;;;;;;;;22.15;51.86;103584.19;2101019;28;893;-54
2021/11/15 00:47:48;;;;;;;;;;;;;;;22.23;49.07;103577.91;2100814;28;981;-55
2021/11/15 00:48:55;;;;;;;;;;;;;;;22.18;51.18;103580.63;2100795;28;831;-55
2021/11/15 00:49:55;;;;;;;;;;;;;;;22.08;53.92;103586.88;2101074;28;815;-55
2021/11/15 00:50:55;;;;;;;;;;;;;;;22.08;52.68;103587.75;2100970;28;871;-55
2021/11/15 00:51:56;;;;;;;;;;;;;;;22.10;51.62;103585.09;2100945;28;894;-55
2021/11/15 00:52:56;;;;;;;;;;;;;;;22.15;49.64;103573.38;2100839;28;1016;-55
2021/11/15 00:53:57;;;;;;;;;;;;;;;22.08;51.92;103582.34;2100735;28;783;-55
2021/11/15 00:54:57;;;;;;;;;;;;;;;22.14;52.52;103581.50;2101129;28;892;-55
2021/11/15 00:55:57;;;;;;;;;;;;;;;22.18;50.30;103577.91;2100997;28;902;-55
2021/11/15 00:56:57;;;;;;;;;;;;;;;22.12;51.95;103583.28;2100916;28;807;-55
2021/11/15 00:57:58;;;;;;;;;;;;;;;22.02;53.47;103585.94;2100701;28;1176;-55
2021/11/15 00:58:58;;;;;;;;;;;;;;;21.96;53.56;103583.22;2100648;28;1308;-54
2021/11/15 00:59:58;;;;;;;;;;;;;;;22.00;51.02;103579.66;2100968;28;985;-55
2021/11/15 01:00:59;;;;;;;;;;;;;;;22.05;51.79;103579.69;2100892;28;871;-55
2021/11/15 01:01:59;;;;;;;;;;;;;;;22.10;51.74;103574.28;2100704;28;1910;-55
2021/11/15 01:03:00;;;;;;;;;;;;;;;22.02;51.27;103575.16;2100926;28;798;-55
2021/11/15 01:04:00;;;;;;;;;;;;;;;22.01;53.96;103570.66;2100876;28;921;-55
2021/11/15 01:05:00;;;;;;;;;;;;;;;22.03;50.38;103568.84;2100879;28;839;-56
2021/11/15 01:06:00;;;;;;;;;;;;;;;22.04;52.38;103570.66;2100544;28;1023;-56
2021/11/15 01:07:01;;;;;;;;;;;;;;;22.05;49.66;103568.88;2100468;28;863;-55
2021/11/15 01:08:02;;;;;;;;;;;;;;;22.03;52.53;103566.16;2100957;28;857;-55
2021/11/15 01:09:03;;;;;;;;;;;;;;;22.00;52.21;103567.97;2101094;28;708;-55
2021/11/15 01:10:05;;;;;;;;;;;;;;;21.96;53.89;103569.72;2100907;28;883;-55
2021/11/15 01:11:05;;;;;;;;;;;;;;;21.99;51.88;103567.03;2100810;28;1275;-55
2021/11/15 01:12:06;;;;;;;;;;;;;;;22.00;51.10;103558.06;2100827;28;842;-55
2021/11/15 01:13:06;;;;;;;;;;;;;;;21.96;52.37;103564.34;2100811;28;1078;-55
2021/11/15 01:14:06;;;;;;;;;;;;;;;21.97;50.96;103568.84;2100067;28;686;-55
2021/11/15 01:15:08;;;;;;;;;;;;;;;21.98;52.51;103565.25;2100182;28;855;-55
2021/11/15 01:16:08;;;;;;;;;;;;;;;21.96;50.68;103558.94;2100800;28;1096;-55
2021/11/15 01:17:08;;;;;;;;;;;;;;;21.98;51.24;103558.97;2100736;28;890;-55
2021/11/15 01:18:08;;;;;;;;;;;;;;;21.98;52.03;103554.44;2100796;28;775;-55
2021/11/15 01:19:09;;;;;;;;;;;;;;;22.01;50.08;103570.66;2100673;28;954;-55
2021/11/15 01:20:11;;;;;;;;;;;;;;;21.98;51.71;103575.16;2100812;28;790;-55
2021/11/15 01:21:12;;;;;;;;;;;;;;;21.92;53.21;103565.22;2100816;28;925;-55
2021/11/15 01:22:12;;;;;;;;;;;;;;;21.86;51.35;103557.09;2099885;28;1934;-55
2021/11/15 01:23:12;;;;;;;;;;;;;;;21.88;51.22;103558.91;2100196;28;977;-55
2021/11/15 01:24:13;;;;;;;;;;;;;;;21.90;50.56;103557.13;2100772;28;792;-55
2021/11/15 01:25:13;;;;;;;;;;;;;;;21.87;52.97;103561.59;2100471;28;1161;-55
2021/11/15 01:26:14;;;;;;;;;;;;;;;21.84;52.59;103561.59;2100800;28;909;-55
2021/11/15 01:27:14;;;;;;;;;;;;;;;21.90;50.06;103567.00;2100461;28;876;-55
2021/11/15 01:28:14;;;;;;;;;;;;;;;21.98;50.72;103559.84;2100805;28;815;-55
2021/11/15 01:29:14;;;;;;;;;;;;;;;21.95;52.25;103559.84;2100755;28;866;-55
2021/11/15 01:30:16;;;;;;;;;;;;;;;21.96;50.47;103560.75;2100212;28;894;-55
2021/11/15 01:31:17;;;;;;;;;;;;;;;21.87;52.27;103546.31;2100731;28;859;-55
2021/11/15 01:32:18;;;;;;;;;;;;;;;21.92;50.38;103549.03;2100597;28;843;-55
2021/11/15 01:33:18;;;;;;;;;;;;;;;21.96;50.77;103544.56;2100651;28;1043;-55
2021/11/15 01:34:20;;;;;;;;;;;;;;;21.92;51.19;103539.16;2100555;28;776;-55
2021/11/15 01:35:21;;;;;;;;;;;;;;;21.94;51.58;103541.84;2100382;28;862;-56
2021/11/15 01:36:21;;;;;;;;;;;;;;;21.92;51.37;103538.22;2099866;28;2084;-55
2021/11/15 01:37:22;;;;;;;;;;;;;;;21.91;51.82;103541.81;2100146;28;842;-55
2021/11/15 01:38:22;;;;;;;;;;;;;;;21.89;51.84;103539.13;2095754;28;983;-55
2021/11/15 01:39:23;;;;;;;;;;;;;;;21.86;51.26;103538.22;2092436;28;886;-55
2021/11/15 01:40:27;;;;;;;;;;;;;;;21.84;52.25;103540.91;2092039;28;807;-55
2021/11/15 01:41:27;;;;;;;;;;;;;;;21.78;51.82;103540.88;2092257;28;1894;-55
2021/11/15 01:42:27;;;;;;;;;;;;;;;21.84;52.03;103546.31;2092280;28;918;-55
2021/11/15 01:43:27;;;;;;;;;;;;;;;21.87;52.43;103535.53;2092248;28;965;-55
2021/11/15 01:44:28;;;;;;;;;;;;;;;21.88;53.17;103539.13;2092311;28;873;-54
2021/11/15 01:45:29;;;;;;;;;;;;;;;21.84;52.13;103545.41;2092259;28;1036;-54
2021/11/15 01:46:29;;;;;;;;;;;;;;;21.83;51.78;103544.50;2092293;28;866;-54
2021/11/15 01:47:30;;;;;;;;;;;;;;;21.86;52.51;103549.00;2092279;28;973;-54
2021/11/15 01:48:30;;;;;;;;;;;;;;;21.89;51.58;103543.63;2092203;28;701;-55
2021/11/15 01:49:30;;;;;;;;;;;;;;;21.91;52.18;103544.53;2092051;28;1020;-55
2021/11/15 01:50:31;;;;;;;;;;;;;;;21.91;52.55;103541.81;2092206;28;824;-53
2021/11/15 01:51:32;;;;;;;;;;;;;;;21.95;51.29;103538.25;2091507;28;1268;-53
2021/11/15 01:52:32;;;;;;;;;;;;;;;21.92;53.12;103546.31;2091718;28;795;-54
2021/11/15 01:53:32;;;;;;;;;;;;;;;21.89;53.72;103538.22;2092271;28;811;-54
2021/11/15 01:54:33;;;;;;;;;;;;;;;21.89;51.79;103544.53;2092197;28;856;-54
2021/11/15 01:55:33;;;;;;;;;;;;;;;21.89;52.09;103539.13;2092293;28;965;-55
2021/11/15 01:56:33;;;;;;;;;;;;;;;21.93;53.36;103537.34;2092230;28;829;-55
2021/11/15 01:57:34;;;;;;;;;;;;;;;21.91;53.14;103542.75;2092061;28;1093;-55
2021/11/15 01:58:34;;;;;;;;;;;;;;;21.88;53.14;103548.13;2092320;28;760;-55
2021/11/15 01:59:34;;;;;;;;;;;;;;;21.82;54.16;103545.41;2091844;28;1328;-55
2021/11/15 02:00:40;;;;;;;;;;;;;;;21.77;53.78;103541.78;2092141;28;788;-55
2021/11/15 02:01:40;;;;;;;;;;;;;;;21.86;50.28;103538.22;2092202;28;1910;-55
2021/11/15 02:02:41;;;;;;;;;;;;;;;21.85;52.51;103547.19;2092132;28;1166;-55
2021/11/15 02:03:41;;;;;;;;;;;;;;;21.88;50.70;103547.22;2092243;28;799;-55
2021/11/15 02:04:41;;;;;;;;;;;;;;;21.87;51.59;103540.00;2091885;28;1079;-55
2021/11/15 02:05:42;;;;;;;;;;;;;;;21.84;51.78;103534.59;2092140;28;775;-55
2021/11/15 02:06:43;;;;;;;;;;;;;;;21.82;53.84;103531.91;2091494;28;1017;-55
2021/11/15 02:07:43;;;;;;;;;;;;;;;21.81;51.06;103531.88;2091564;28;1029;-55
2021/11/15 02:08:43;;;;;;;;;;;;;;;21.86;53.15;103527.41;2092081;28;1440;-55
2021/11/15 02:09:43;;;;;;;;;;;;;;;21.83;51.57;103522.00;2092139;28;780;-55
2021/11/15 02:10:44;;;;;;;;;;;;;;;21.84;52.47;103529.19;2091672;28;863;-55
2021/11/15 02:11:45;;;;;;;;;;;;;;;21.80;53.43;103532.78;2092153;28;823;-55
2021/11/15 02:12:45;;;;;;;;;;;;;;;21.76;52.50;103532.81;2091926;28;799;-55
2021/11/15 02:13:45;;;;;;;;;;;;;;;21.75;52.38;103536.41;2092114;28;998;-55
2021/11/15 02:14:46;;;;;;;;;;;;;;;21.76;51.40;103532.81;2092073;28;831;-55
2021/11/15 02:15:46;;;;;;;;;;;;;;;21.74;52.99;103529.19;2091958;28;1433;-55
2021/11/15 02:16:47;;;;;;;;;;;;;;;21.75;54.31;103525.59;2092146;28;985;-55
2021/11/15 02:17:48;;;;;;;;;;;;;;;21.76;54.44;103538.19;2092009;28;1060;-55
2021/11/15 02:18:48;;;;;;;;;;;;;;;21.74;52.51;103530.97;2091955;28;858;-55
2021/11/15 02:19:48;;;;;;;;;;;;;;;21.68;53.18;103531.88;2092058;28;1245;-55
2021/11/15 02:20:50;;;;;;;;;;;;;;;21.71;53.55;103529.19;2092014;28;978;-55
2021/11/15 02:21:53;;;;;;;;;;;;;;;21.76;51.53;103526.50;2091982;28;1894;-55
2021/11/15 02:22:54;;;;;;;;;;;;;;;21.77;51.35;103520.19;2091992;28;811;-55
2021/11/15 02:23:54;;;;;;;;;;;;;;;21.79;50.92;103510.31;2091963;28;830;-55
2021/11/15 02:24:54;;;;;;;;;;;;;;;21.76;53.16;103515.69;2091959;28;902;-55
2021/11/15 02:25:55;;;;;;;;;;;;;;;21.75;52.65;103516.59;2091775;28;933;-55
2021/11/15 02:26:56;;;;;;;;;;;;;;;21.75;54.15;103514.81;2091941;28;930;-55
2021/11/15 02:27:56;;;;;;;;;;;;;;;21.76;51.89;103511.22;2091962;28;1044;-55
2021/11/15 02:28:56;;;;;;;;;;;;;;;21.69;53.59;103514.78;2091883;28;799;-55
2021/11/15 02:29:56;;;;;;;;;;;;;;;21.68;51.98;103515.69;2091992;28;997;-55
2021/11/15 02:30:57;;;;;;;;;;;;;;;21.76;53.03;103510.31;2091880;28;1060;-55
2021/11/15 02:31:57;;;;;;;;;;;;;;;21.71;51.82;103502.22;2091959;28;1212;-55
2021/11/15 02:32:57;;;;;;;;;;;;;;;21.74;52.21;103499.53;2091931;28;1025;-55
2021/11/15 02:33:59;;;;;;;;;;;;;;;21.73;51.39;103503.13;2091790;28;1245;-55
2021/11/15 02:34:59;;;;;;;;;;;;;;;21.67;53.23;103500.38;2091951;28;807;-55
2021/11/15 02:35:59;;;;;;;;;;;;;;;21.64;53.64;103511.16;2091939;28;854;-55
2021/11/15 02:37:00;;;;;;;;;;;;;;;21.66;54.16;103498.59;2091896;28;862;-55
2021/11/15 02:38:00;;;;;;;;;;;;;;;21.73;50.36;103495.03;2093592;28;1566;-55
2021/11/15 02:39:00;;;;;;;;;;;;;;;21.77;51.90;103487.81;2100148;28;717;-55
2021/11/15 02:40:03;;;;;;;;;;;;;;;21.78;51.97;103484.22;2100187;28;847;-55
2021/11/15 02:41:03;;;;;;;;;;;;;;;21.69;53.80;103489.59;2099811;28;917;-55
2021/11/15 02:42:03;;;;;;;;;;;;;;;21.79;51.81;103483.34;2099438;28;1886;-56
2021/11/15 02:43:04;;;;;;;;;;;;;;;21.68;53.25;103483.31;2100132;28;1048;-55
2021/11/15 02:44:05;;;;;;;;;;;;;;;21.68;52.18;103487.78;2099822;28;811;-55
2021/11/15 02:45:06;;;;;;;;;;;;;;;21.67;50.74;103483.28;2100165;28;838;-55
2021/11/15 02:46:06;;;;;;;;;;;;;;;21.69;53.16;103479.72;2100158;28;892;-55
2021/11/15 02:47:06;;;;;;;;;;;;;;;21.68;52.13;103477.91;2099751;28;802;-55
2021/11/15 02:48:07;;;;;;;;;;;;;;;21.72;51.56;103482.44;2100046;28;882;-55
2021/11/15 02:49:07;;;;;;;;;;;;;;;21.74;52.29;103477.00;2100039;28;836;-55
2021/11/15 02:50:11;;;;;;;;;;;;;;;21.71;52.11;103480.63;2099816;28;1005;-55
2021/11/15 02:51:11;;;;;;;;;;;;;;;21.69;52.28;103479.72;2100105;28;989;-55
2021/11/15 02:52:11;;;;;;;;;;;;;;;21.70;52.45;103476.13;2099912;28;1185;-55
2021/11/15 02:53:12;;;;;;;;;;;;;;;21.70;53.14;103481.53;2099773;28;879;-55
2021/11/15 02:54:12;;;;;;;;;;;;;;;21.70;52.46;103477.91;2100046;28;819;-55
2021/11/15 02:55:12;;;;;;;;;;;;;;;21.68;51.39;103482.38;2099987;28;882;-55
2021/11/15 02:56:12;;;;;;;;;;;;;;;21.59;52.38;103480.53;2100008;28;926;-55
2021/11/15 02:57:16;;;;;;;;;;;;;;;21.62;51.42;103470.69;2100026;28;989;-55
2021/11/15 02:58:16;;;;;;;;;;;;;;;21.69;53.24;103478.81;2099686;28;1077;-55
2021/11/15 02:59:16;;;;;;;;;;;;;;;21.68;52.62;103471.59;2099803;28;977;-55
2021/11/15 03:00:27;;;;;;;;;;;;;;;21.69;51.66;103471.63;2099909;28;993;-55
2021/11/15 03:01:27;;;;;;;;;;;;;;;21.70;52.17;103468.03;2099994;28;1905;-55
2021/11/15 03:02:29;;;;;;;;;;;;;;;21.72;52.19;103470.72;2099922;28;965;-55
2021/11/15 03:03:29;;;;;;;;;;;;;;;21.66;52.30;103477.00;2099939;28;803;-55
2021/11/15 03:04:30;;;;;;;;;;;;;;;21.70;52.25;103470.72;2099656;28;914;-55
2021/11/15 03:05:31;;;;;;;;;;;;;;;21.67;52.19;103475.19;2099977;28;779;-55
2021/11/15 03:06:31;;;;;;;;;;;;;;;21.66;52.15;103476.09;2099917;28;1052;-55
2021/11/15 03:07:31;;;;;;;;;;;;;;;21.67;52.62;103468.03;2099911;28;835;-55
2021/11/15 03:08:32;;;;;;;;;;;;;;;21.70;51.88;103461.72;2099848;28;855;-55
2021/11/15 03:09:33;;;;;;;;;;;;;;;21.67;50.89;103469.78;2099574;28;918;-55
2021/11/15 03:10:34;;;;;;;;;;;;;;;21.71;52.42;103466.22;2099858;28;1207;-55
2021/11/15 03:11:34;;;;;;;;;;;;;;;21.69;53.23;103463.53;2099907;28;815;-55
2021/11/15 03:12:34;;;;;;;;;;;;;;;21.66;51.64;103468.00;2099847;28;792;-55
2021/11/15 03:13:40;;;;;;;;;;;;;;;21.65;52.22;103469.81;2099908;28;966;-55
2021/11/15 03:14:40;;;;;;;;;;;;;;;21.60;52.17;103461.66;2099684;28;768;-55
2021/11/15 03:15:44;;;;;;;;;;;;;;;21.58;52.25;103459.84;2099692;28;850;-55
2021/11/15 03:16:44;;;;;;;;;;;;;;;21.65;51.43;103464.41;2099903;28;878;-55
2021/11/15 03:17:50;;;;;;;;;;;;;;;21.69;51.46;103470.69;2099865;28;993;-55
2021/11/15 03:18:50;;;;;;;;;;;;;;;21.63;51.18;103460.81;2099916;28;786;-55
2021/11/15 03:19:50;;;;;;;;;;;;;;;21.77;50.37;103463.53;2099781;28;1065;-55
2021/11/15 03:20:52;;;;;;;;;;;;;;;21.73;50.98;103462.66;2099531;28;820;-55
2021/11/15 03:21:52;;;;;;;;;;;;;;;21.60;54.40;103460.75;2099829;28;1951;-55
2021/11/15 03:22:53;;;;;;;;;;;;;;;21.55;51.64;103460.72;2099816;28;1032;-55
2021/11/15 03:23:54;;;;;;;;;;;;;;;21.51;53.25;103460.72;2099545;28;819;-55
2021/11/15 03:24:54;;;;;;;;;;;;;;;21.54;51.51;103458.94;2099819;28;701;-55
2021/11/15 03:25:55;;;;;;;;;;;;;;;21.57;51.76;103456.25;2099821;28;775;-55
2021/11/15 03:26:55;;;;;;;;;;;;;;;21.59;50.55;103448.16;2099393;28;776;-55
2021/11/15 03:27:56;;;;;;;;;;;;;;;21.61;51.37;103457.16;2099532;28;843;-55
2021/11/15 03:28:57;;;;;;;;;;;;;;;21.57;52.14;103456.25;2099692;28;1969;-55
2021/11/15 03:29:57;;;;;;;;;;;;;;;21.64;51.67;103462.63;2099600;28;957;-55
2021/11/15 03:31:03;;;;;;;;;;;;;;;21.59;53.65;103459.84;2099755;28;814;-55
2021/11/15 03:32:03;;;;;;;;;;;;;;;21.62;51.11;103461.72;2099830;28;953;-55
2021/11/15 03:33:03;;;;;;;;;;;;;;;21.68;52.80;103460.81;2099784;28;886;-55
2021/11/15 03:34:05;;;;;;;;;;;;;;;21.64;50.89;103461.69;2099790;28;790;-55
2021/11/15 03:35:06;;;;;;;;;;;;;;;21.62;52.55;103451.81;2099615;28;692;-55
2021/11/15 03:36:06;;;;;;;;;;;;;;;21.60;51.72;103461.66;2099804;28;1179;-55
2021/11/15 03:37:07;;;;;;;;;;;;;;;21.70;50.41;103450.94;2099717;28;835;-55
2021/11/15 03:38:07;;;;;;;;;;;;;;;21.66;51.20;103433.84;2097024;28;1238;-55
2021/11/15 03:39:08;;;;;;;;;;;;;;;21.69;53.18;103449.13;2091501;28;944;-55
2021/11/15 03:40:13;;;;;;;;;;;;;;;21.63;51.87;103458.13;2091458;28;989;-55
2021/11/15 03:41:13;;;;;;;;;;;;;;;21.55;51.84;103452.63;2091535;28;1128;-55
2021/11/15 03:42:13;;;;;;;;;;;;;;;21.59;53.27;103449.06;2091279;28;1886;-55
2021/11/15 03:43:14;;;;;;;;;;;;;;;21.60;51.44;103455.38;2091109;28;985;-55
2021/11/15 03:44:14;;;;;;;;;;;;;;;21.62;52.72;103448.22;2091401;28;807;-55
2021/11/15 03:45:14;;;;;;;;;;;;;;;21.60;51.97;103441.88;2091509;28;978;-55
2021/11/15 03:46:15;;;;;;;;;;;;;;;21.62;50.89;103442.81;2091465;28;831;-55
2021/11/15 03:47:15;;;;;;;;;;;;;;;21.67;51.89;103443.75;2091510;28;1040;-55
2021/11/15 03:48:16;;;;;;;;;;;;;;;21.65;52.37;103452.72;2091265;28;997;-55
2021/11/15 03:49:16;;;;;;;;;;;;;;;21.60;52.71;103447.28;2091426;28;855;-55
2021/11/15 03:50:16;;;;;;;;;;;;;;;21.68;50.48;103439.22;2091249;28;1157;-55
2021/11/15 03:51:17;;;;;;;;;;;;;;;21.69;51.58;103403.25;2091502;28;850;-55
2021/11/15 03:52:17;;;;;;;;;;;;;;;21.66;52.00;103397.84;2091408;28;799;-55
2021/11/15 03:53:17;;;;;;;;;;;;;;;21.69;52.32;103401.47;2091035;28;1407;-55
2021/11/15 03:54:17;;;;;;;;;;;;;;;21.61;52.23;103400.53;2091182;28;982;-55
2021/11/15 03:55:18;;;;;;;;;;;;;;;21.56;53.21;103395.09;2091350;28;997;-55
2021/11/15 03:56:23;;;;;;;;;;;;;;;21.68;51.55;103394.28;2091249;28;989;-55
2021/11/15 03:57:23;;;;;;;;;;;;;;;21.70;51.42;103379.00;2091394;28;866;-55
2021/11/15 03:58:24;;;;;;;;;;;;;;;21.65;51.43;103399.66;2091066;28;1212;-56
2021/11/15 03:59:24;;;;;;;;;;;;;;;21.61;52.44;103458.06;2091302;28;1036;-55
2021/11/15 04:00:26;;;;;;;;;;;;;;;21.52;53.06;103447.22;2091367;28;1045;-55
2021/11/15 04:01:30;;;;;;;;;;;;;;;21.48;51.65;103438.25;2091389;28;890;-55
2021/11/15 04:02:33;;;;;;;;;;;;;;;21.53;51.49;103442.75;2091329;28;831;-55
2021/11/15 04:03:34;;;;;;;;;;;;;;;21.52;51.51;103435.56;2091365;28;795;-55
2021/11/15 04:05:59;;;;;;;;;;;;;;;21.62;50.99;103435.63;2068422;28;1053;-55
2021/11/15 04:06:59;;;;;;;;;;;;;;;21.58;52.65;103441.84;2074007;28;1018;-55
2021/11/15 04:08:02;;;;;;;;;;;;;;;21.54;50.87;103434.66;2073984;28;1031;-55
2021/11/15 04:09:08;;;;;;;;;;;;;;;21.51;52.23;103431.94;2074049;28;847;-55
2021/11/15 04:10:11;;;;;;;;;;;;;;;21.54;52.36;103431.94;2073958;28;796;-55
2021/11/15 04:11:11;;;;;;;;;;;;;;;21.55;51.63;103451.75;2073783;28;1101;-55
2021/11/15 04:12:11;;;;;;;;;;;;;;;21.55;53.58;103440.97;2074012;28;954;-55
2021/11/15 04:13:14;;;;;;;;;;;;;;;21.57;52.30;103449.97;2074014;28;974;-55
2021/11/15 04:14:15;;;;;;;;;;;;;;;21.55;52.23;103444.53;2074004;28;978;-55
2021/11/15 04:15:15;;;;;;;;;;;;;;;21.53;52.17;103446.34;2074063;28;869;-55
2021/11/15 04:16:16;;;;;;;;;;;;;;;21.56;53.11;103448.16;2073866;28;1062;-55
2021/11/15 04:17:16;;;;;;;;;;;;;;;21.55;51.28;103441.84;2074026;28;1033;-55
2021/11/15 04:18:18;;;;;;;;;;;;;;;21.51;52.77;103439.16;2073576;28;1041;-55
2021/11/15 04:19:18;;;;;;;;;;;;;;;21.51;53.05;103440.03;2073830;28;953;-55
2021/11/15 04:20:20;;;;;;;;;;;;;;;21.50;53.18;103440.03;2074109;28;772;-55
2021/11/15 04:21:20;;;;;;;;;;;;;;;21.46;52.66;103440.03;2073868;28;1018;-55
2021/11/15 04:22:21;;;;;;;;;;;;;;;21.46;52.54;103412.19;2073755;28;1949;-55
2021/11/15 04:23:21;;;;;;;;;;;;;;;21.42;52.62;103395.06;2074015;28;978;-55
2021/11/15 04:24:21;;;;;;;;;;;;;;;21.52;52.42;103387.00;2073762;28;1074;-56
2021/11/15 04:25:21;;;;;;;;;;;;;;;21.58;53.07;103385.22;2073722;28;882;-55
2021/11/15 04:26:21;;;;;;;;;;;;;;;21.59;52.25;103388.84;2073973;28;796;-55
2021/11/15 04:27:21;;;;;;;;;;;;;;;21.62;52.62;103388.88;2073824;28;1021;-55
2021/11/15 04:28:22;;;;;;;;;;;;;;;21.55;52.41;103387.91;2073660;28;823;-55
2021/11/15 04:29:22;;;;;;;;;;;;;;;21.61;52.15;103381.66;2073938;28;934;-56
2021/11/15 04:30:22;;;;;;;;;;;;;;;21.61;53.79;103385.22;2073887;28;1017;-55
2021/11/15 04:31:22;;;;;;;;;;;;;;;21.59;50.96;103380.75;2073792;28;986;-55
2021/11/15 04:32:23;;;;;;;;;;;;;;;21.63;52.08;103385.28;2073967;28;985;-55
2021/11/15 04:33:23;;;;;;;;;;;;;;;21.62;51.11;103381.66;2073856;28;1030;-55
2021/11/15 04:34:23;;;;;;;;;;;;;;;21.60;53.02;103379.84;2073919;28;831;-55
2021/11/15 04:35:24;;;;;;;;;;;;;;;21.66;51.15;103381.69;2073963;28;982;-55
2021/11/15 04:36:25;;;;;;;;;;;;;;;21.59;52.29;103378.03;2073470;28;800;-55
2021/11/15 04:37:25;;;;;;;;;;;;;;;21.68;51.76;103383.50;2073898;28;1067;-55
2021/11/15 04:38:25;;;;;;;;;;;;;;;21.61;51.17;103377.13;2068760;28;1679;-55
2021/11/15 04:39:25;;;;;;;;;;;;;;;21.62;50.80;103380.78;2065818;28;978;-55
2021/11/15 04:40:26;;;;;;;;;;;;;;;21.67;51.05;103380.78;2065859;28;990;-55
2021/11/15 04:41:26;;;;;;;;;;;;;;;21.59;52.54;103381.63;2065441;28;924;-55
2021/11/15 04:42:26;;;;;;;;;;;;;;;21.57;51.81;103374.44;2065741;28;1902;-55
2021/11/15 04:43:26;;;;;;;;;;;;;;;21.59;51.18;103367.25;2071682;28;880;-55
2021/11/15 04:44:27;;;;;;;;;;;;;;;21.68;51.64;103371.78;2091126;28;895;-55
2021/11/15 04:45:27;;;;;;;;;;;;;;;21.64;51.03;103376.28;2091244;28;843;-55
2021/11/15 04:46:27;;;;;;;;;;;;;;;21.68;51.25;103378.09;2091038;28;1024;-55
2021/11/15 04:47:27;;;;;;;;;;;;;;;21.62;52.35;103375.38;2090948;28;1094;-55
2021/11/15 04:48:27;;;;;;;;;;;;;;;21.68;51.73;103371.78;2091204;28;1012;-55
2021/11/15 04:49:28;;;;;;;;;;;;;;;21.66;51.76;103371.81;2091093;28;937;-55
2021/11/15 04:50:28;;;;;;;;;;;;;;;21.62;53.10;103365.47;2091165;28;831;-55
2021/11/15 04:51:29;;;;;;;;;;;;;;;21.68;50.89;103366.41;2091220;28;1415;-55
2021/11/15 04:52:29;;;;;;;;;;;;;;;21.63;54.70;103369.09;2090928;28;981;-55
2021/11/15 04:53:29;;;;;;;;;;;;;;;21.58;51.81;103370.84;2091205;28;874;-55
2021/11/15 04:54:29;;;;;;;;;;;;;;;21.62;50.40;103372.69;2091068;28;1028;-55
2021/11/15 04:55:30;;;;;;;;;;;;;;;21.68;50.69;103364.63;2091120;28;1174;-55
2021/11/15 04:56:30;;;;;;;;;;;;;;;21.67;52.24;103372.69;2091166;28;1028;-55
2021/11/15 04:57:30;;;;;;;;;;;;;;;21.65;52.28;103374.47;2090979;28;1040;-55
2021/11/15 04:58:30;;;;;;;;;;;;;;;21.68;52.05;103374.50;2090957;28;1226;-55
2021/11/15 04:59:30;;;;;;;;;;;;;;;21.65;52.22;103369.09;2091179;28;933;-55
2021/11/15 05:00:31;;;;;;;;;;;;;;;21.54;51.48;103379.81;2091016;28;899;-55
2021/11/15 05:01:31;;;;;;;;;;;;;;;21.62;51.46;103396.97;2091002;28;1032;-55
2021/11/15 05:02:31;;;;;;;;;;;;;;;21.59;50.86;103362.75;2090811;28;1999;-55
2021/11/15 05:03:34;;;;;;;;;;;;;;;21.60;51.92;103344.78;2091218;28;977;-55
2021/11/15 05:04:35;;;;;;;;;;;;;;;21.58;55.52;103342.06;2091140;28;796;-55
2021/11/15 05:05:35;;;;;;;;;;;;;;;22.19;54.05;103355.63;2092745;28;830;-55
2021/11/15 05:06:35;;;;;;;;;;;;;;;22.52;53.95;103347.53;2092561;28;826;-55
2021/11/15 05:07:35;;;;;;;;;;;;;;;22.70;53.26;103355.56;2092632;28;922;-54
2021/11/15 05:08:35;;;;;;;;;;;;;;;22.81;54.23;103342.03;2092539;28;953;-55
2021/11/15 05:09:36;;;;;;;;;;;;;;;22.93;54.35;103351.88;2092517;28;1032;-55
2021/11/15 05:10:36;;;;;;;;;;;;;;;23.06;53.64;103367.16;2092559;28;1264;-55
2021/11/15 05:11:36;;;;;;;;;;;;;;;23.14;54.16;103374.34;2092573;28;969;-55
2021/11/15 05:12:37;;;;;;;;;;;;;;;23.24;53.87;103386.94;2092544;28;1005;-55
2021/11/15 05:13:37;;;;;;;;;;;;;;;23.31;53.89;103385.97;2092648;28;776;-55
2021/11/15 05:14:37;;;;;;;;;;;;;;;23.38;52.51;103386.88;2092498;28;973;-55
2021/11/15 05:15:37;;;;;;;;;;;;;;;23.45;52.48;103388.63;2092588;28;1044;-55
2021/11/15 05:16:38;;;;;;;;;;;;;;;23.54;52.58;103380.47;2092473;28;1005;-55
2021/11/15 05:17:38;;;;;;;;;;;;;;;23.66;51.88;103365.94;2092279;28;779;-55
2021/11/15 05:18:38;;;;;;;;;;;;;;;23.79;51.46;103355.94;2092539;28;977;-55
2021/11/15 05:19:38;;;;;;;;;;;;;;;23.83;48.72;103352.28;2092527;28;1012;-54